Map

Track Data

SID SEASON NUMBER BASIN SUBBASIN NAME ISO_TIME NATURE LAT LON WMO_WIND WMO_PRES WMO_AGENCY TRACK_TYPE DIST2LAND LANDFALL IFLAG USA_AGENCY USA_ATCF_ID USA_LAT USA_LON USA_RECORD USA_STATUS USA_WIND USA_PRES USA_SSHS USA_R34_NE USA_R34_SE USA_R34_SW USA_R34_NW USA_R50_NE USA_R50_SE USA_R50_SW USA_R50_NW USA_R64_NE USA_R64_SE USA_R64_SW USA_R64_NW USA_POCI USA_ROCI USA_RMW USA_EYE TOKYO_LAT TOKYO_LON TOKYO_GRADE TOKYO_WIND TOKYO_PRES TOKYO_R50_DIR TOKYO_R50_LONG TOKYO_R50_SHORT TOKYO_R30_DIR TOKYO_R30_LONG TOKYO_R30_SHORT TOKYO_LAND CMA_LAT CMA_LON CMA_CAT CMA_WIND CMA_PRES HKO_LAT HKO_LON HKO_CAT HKO_WIND HKO_PRES NEWDELHI_LAT NEWDELHI_LON NEWDELHI_GRADE NEWDELHI_WIND NEWDELHI_PRES NEWDELHI_CI NEWDELHI_DP NEWDELHI_POCI REUNION_LAT REUNION_LON REUNION_TYPE REUNION_WIND REUNION_PRES REUNION_TNUM REUNION_CI REUNION_RMW REUNION_R34_NE REUNION_R34_SE REUNION_R34_SW REUNION_R34_NW REUNION_R50_NE REUNION_R50_SE REUNION_R50_SW REUNION_R50_NW REUNION_R64_NE REUNION_R64_SE REUNION_R64_SW REUNION_R64_NW BOM_LAT BOM_LON BOM_TYPE BOM_WIND BOM_PRES BOM_TNUM BOM_CI BOM_RMW BOM_R34_NE BOM_R34_SE BOM_R34_SW BOM_R34_NW BOM_R50_NE BOM_R50_SE BOM_R50_SW BOM_R50_NW BOM_R64_NE BOM_R64_SE BOM_R64_SW BOM_R64_NW BOM_ROCI BOM_POCI BOM_EYE BOM_POS_METHOD BOM_PRES_METHOD NADI_LAT NADI_LON NADI_CAT NADI_WIND NADI_PRES WELLINGTON_LAT WELLINGTON_LON WELLINGTON_WIND WELLINGTON_PRES DS824_LAT DS824_LON DS824_STAGE DS824_WIND DS824_PRES TD9636_LAT TD9636_LON TD9636_STAGE TD9636_WIND TD9636_PRES TD9635_LAT TD9635_LON TD9635_WIND TD9635_PRES TD9635_ROCI NEUMANN_LAT NEUMANN_LON NEUMANN_CLASS NEUMANN_WIND NEUMANN_PRES MLC_LAT MLC_LON MLC_CLASS MLC_WIND MLC_PRES USA_GUST BOM_GUST BOM_GUST_PER REUNION_GUST REUNION_GUST_PER USA_SEAHGT USA_SEARAD_NE USA_SEARAD_SE USA_SEARAD_SW USA_SEARAD_NW STORM_SPEED STORM_DIR
1907203N17116 1907 34 WP MM NOT_NAMED 1907-07-21 16:00:00 NR 16.7000 116.300 main 371 371 __________O___ -1 16.7000 116.300 4 7 297
1907203N17116 1907 34 WP MM NOT_NAMED 1907-07-21 18:00:00 NR 16.8102 116.077 main 394 394 __________P___ -1 16.8102 116.077 4 7 297
1907203N17116 1907 34 WP MM NOT_NAMED 1907-07-21 21:00:00 NR 16.9713 115.750 main 430 441 __________P___ -1 16.9713 115.750 4 7 297
1907203N17116 1907 34 WP MM NOT_NAMED 1907-07-22 00:00:00 NR 17.1227 115.446 main 474 474 __________P___ -1 17.1227 115.446 4 6 298
1907203N17116 1907 34 WP MM NOT_NAMED 1907-07-22 03:00:00 NR 17.2589 115.179 main 501 501 __________P___ -1 17.2589 115.179 4 6 298
1907203N17116 1907 34 WP MM NOT_NAMED 1907-07-22 04:00:00 NR 17.3000 115.100 main 503 488 __________O___ -1 17.3000 115.100 4 5 299
1907203N17116 1907 34 WP MM NOT_NAMED 1907-07-22 06:00:00 NR 17.3752 114.960 main 488 464 __________P___ -1 17.3752 114.960 4 4 300
1907203N17116 1907 34 WP MM NOT_NAMED 1907-07-22 09:00:00 NR 17.4756 114.781 main 464 440 __________P___ -1 17.4756 114.781 4 4 301
1907203N17116 1907 34 WP MM NOT_NAMED 1907-07-22 12:00:00 NR 17.5693 114.622 main 440 425 __________P___ -1 17.5693 114.622 4 4 302
1907203N17116 1907 34 WP MM NOT_NAMED 1907-07-22 15:00:00 NR 17.6657 114.459 main 425 416 __________P___ -1 17.6657 114.459 4 4 302
1907203N17116 1907 34 WP MM NOT_NAMED 1907-07-22 16:00:00 NR 17.7000 114.400 main 416 401 __________O___ -1 17.7000 114.400 4 4 301
1907203N17116 1907 34 WP MM NOT_NAMED 1907-07-22 18:00:00 NR 17.7802 114.261 main 401 368 __________P___ -1 17.7802 114.261 4 5 301
1907203N17116 1907 34 WP MM NOT_NAMED 1907-07-22 21:00:00 NR 17.9070 114.041 main 368 344 __________P___ -1 17.9070 114.041 4 5 301
1907203N17116 1907 34 WP MM NOT_NAMED 1907-07-23 00:00:00 NR 18.0358 113.811 main 344 315 __________P___ -1 18.0358 113.811 4 5 300
1907203N17116 1907 34 WP MM NOT_NAMED 1907-07-23 03:00:00 NR 18.1604 113.577 main 315 306 __________P___ -1 18.1604 113.577 4 5 299
1907203N17116 1907 34 WP MM NOT_NAMED 1907-07-23 04:00:00 NR 18.2000 113.500 main 306 291 __________O___ -1 18.2000 113.500 4 5 298
1907203N17116 1907 34 WP MM NOT_NAMED 1907-07-23 06:00:00 NR 18.2723 113.353 main 291 258 __________P___ -1 18.2723 113.353 4 5 297
1907203N17116 1907 34 WP MM NOT_NAMED 1907-07-23 09:00:00 NR 18.3745 113.131 main 258 234 __________P___ -1 18.3745 113.131 4 5 295
1907203N17116 1907 34 WP MM NOT_NAMED 1907-07-23 12:00:00 NR 18.4720 112.908 main 234 210 __________P___ -1 18.4720 112.908 4 5 294
1907203N17116 1907 34 WP MM NOT_NAMED 1907-07-23 15:00:00 NR 18.5678 112.678 main 210 201 __________P___ -1 18.5678 112.678 4 5 294
1907203N17116 1907 34 WP MM NOT_NAMED 1907-07-23 16:00:00 NR 18.6000 112.600 main 201 186 __________O___ -1 18.6000 112.600 4 5 294
1907203N17116 1907 34 WP MM NOT_NAMED 1907-07-23 18:00:00 NR 18.6611 112.460 main 186 154 __________P___ -1 18.6611 112.460 4 4 294
1907203N17116 1907 34 WP MM NOT_NAMED 1907-07-23 21:00:00 NR 18.7528 112.244 main 154 130 __________P___ -1 18.7528 112.244 4 5 294
1907203N17116 1907 34 WP MM NOT_NAMED 1907-07-24 00:00:00 NR 18.8502 112.001 main 130 99 __________P___ -1 18.8502 112.001 4 5 292
1907203N17116 1907 34 WP MM NOT_NAMED 1907-07-24 03:00:00 NR 18.9597 111.711 main 99 92 __________P___ -1 18.9597 111.711 4 6 292
1907203N17116 1907 34 WP MM NOT_NAMED 1907-07-24 04:00:00 NR 19.0000 111.600 main 92 61 __________O___ -1 19.0000 111.600 4 8 289
1907203N17116 1907 34 WP MM NOT_NAMED 1907-07-24 06:00:00 NR 19.0837 111.335 main 61 30 __________P___ -1 19.0837 111.335 4 9 288
1907203N17116 1907 34 WP MM NOT_NAMED 1907-07-24 09:00:00 NR 19.2215 110.887 main 30 0 __________P___ -1 19.2215 110.887 4 9 288
1907203N17116 1907 34 WP MM NOT_NAMED 1907-07-24 12:00:00 NR 19.3739 110.412 main 0 0 __________P___ -1 19.3739 110.412 4 9 290
1907203N17116 1907 34 WP MM NOT_NAMED 1907-07-24 15:00:00 NR 19.5410 109.946 main 0 0 __________P___ -1 19.5410 109.946 4 9 291
1907203N17116 1907 34 WP MM NOT_NAMED 1907-07-24 16:00:00 NR 19.6000 109.800 main 0 0 __________O___ -1 19.6000 109.800 4 8 295
1907203N17116 1907 34 WP MM NOT_NAMED 1907-07-24 18:00:00 NR 19.7215 109.544 main 0 0 __________P___ -1 19.7215 109.544 4 8 299
1907203N17116 1907 34 WP MM NOT_NAMED 1907-07-24 21:00:00 NR 19.9167 109.185 main 15 15 __________P___ -1 19.9167 109.185 4 8 301
1907203N17116 1907 34 WP MM NOT_NAMED 1907-07-25 00:00:00 NR 20.1219 108.845 main 61 61 __________P___ -1 20.1219 108.845 4 8 303
1907203N17116 1907 34 WP MM NOT_NAMED 1907-07-25 03:00:00 NR 20.3307 108.512 main 98 98 __________P___ -1 20.3307 108.512 4 8 304
1907203N17116 1907 34 WP MM NOT_NAMED 1907-07-25 04:00:00 NR 20.4000 108.400 main 113 100 __________O___ -1 20.4000 108.400 4 8 304
1907203N17116 1907 34 WP MM NOT_NAMED 1907-07-25 06:00:00 NR 20.5435 108.177 main 100 47 __________P___ -1 20.5435 108.177 4 8 305
1907203N17116 1907 34 WP MM NOT_NAMED 1907-07-25 09:00:00 NR 20.7591 107.843 main 47 10 __________P___ -1 20.7591 107.843 4 8 304
1907203N17116 1907 34 WP MM NOT_NAMED 1907-07-25 12:00:00 NR 20.9643 107.498 main 10 0 __________P___ -1 20.9643 107.498 4 8 300
1907203N17116 1907 34 WP MM NOT_NAMED 1907-07-25 15:00:00 NR 21.1465 107.130 main 0 0 __________P___ -1 21.1465 107.130 4 8 297
1907203N17116 1907 34 WP MM NOT_NAMED 1907-07-25 16:00:00 NR 21.2000 107.000 main 0 0 __________O___ -1 21.2000 107.000 4 8 291
1907203N17116 1907 34 WP MM NOT_NAMED 1907-07-25 18:00:00 NR 21.2944 106.727 main 0 0 __________P___ -1 21.2944 106.727 4 8 288
1907203N17116 1907 34 WP MM NOT_NAMED 1907-07-25 21:00:00 NR 21.4089 106.291 main 0 0 __________P___ -1 21.4089 106.291 4 9 284
1907203N17116 1907 34 WP MM NOT_NAMED 1907-07-26 00:00:00 NR 21.4996 105.832 main 0 0 __________P___ -1 21.4996 105.832 4 9 281
1907203N17116 1907 34 WP MM NOT_NAMED 1907-07-26 03:00:00 NR 21.5760 105.359 main 0 0 __________P___ -1 21.5760 105.359 4 9 280
1907203N17116 1907 34 WP MM NOT_NAMED 1907-07-26 04:00:00 NR 21.6000 105.200 main 0 __________O___ -1 21.6000 105.200 7 9 279

Digital Typhoon Data and Search

About IBTrACS Database

This database is a web-friendly format of International Best Track Archive for Climate Stewardship (IBTrACS), a global best track data archive curated by NOAA dating back to 1842.

Updated: 2021-12-06